Accueil
METAR-TAF:

METAR-TAF

Aéroports :

Mysore, Inde

latitude: 12-13-48N, longitude: 76-39-21E, altitude: 715 m

Observation

Le bulletin a été fait il y a 41 minutes, à 14:00 UTC
Vent calme
Température 26°C
Humidité 42%
Pression 1013 hPa
Visibilité: 8000 m

METAR: VOMY 261400Z 00000KT 8000 NSC 26/12 Q1013

Heure: 20:11 (14:41 UTC)

Prévision

Le bulletin a été fait il y a 6 heures et 41 minutes, à 08:00 UTC
Prévision valable du 26 à 09 UTC au 26 à 18 UTC
Vent 10 kt de est
Visibilité: 8000 m
Quelques nuages à une hauteur de 1500 ft

TAF: VOMY 260800Z 2609/2618 09010KT 8000 FEW015

Observations et prévisions météorologiques de plus de 4000 aéroports (messages METAR et TAF).

Les stations disponibles sont représentées par des disques jaunes et rouges sur la carte.

Passer la souris dessus pour voir le nom de la station.

Cliquer dessus pour voir les observations et prévisions météorologiques.

Pour changer de carte: cliquez sur les boutons verts avec une croix noire pour zoomer, sur le bouton vert avec un tiret pour effectuer un zoom arrière, ou sur les flèches vertes pour les cartes adjacentes.


METAR-TAF: